Sullivan, IL

11:10 PM CST on February 10, 2016 (GMT -0600)
West Okaw River Valley | | Change Station
CLOSE
Current Station
Personal Weather Station
Location: Sullivan, IL
Elevation: 656 ft
Nearby Weather Stations

Elev 656 ft 39.60 °N, 88.71 °W | Updated 23 minutes ago

Overcast
Overcast
19.4 °F
Feels Like 19 °F
N
2.0
Wind Variable Wind from WNW
Gusts 4.0 mph

Today
High -- | Low -- °F
--% Chance of Precip.
Yesterday
High -- | Low -- °F
Precip. -- in
Pressure 30.19 in
Visibility 10.0 miles
Clouds Overcast 6000 ft
Windchill 19 °F
Dew Point 16 °F
Humidity 87%
Rainfall 0.00 in
Snow Depth Not available.
6:53 AM 5:24 PM
Waxing Crescent, 9% visible
METAR KMTO 110453Z AUTO 32006KT 10SM OVC060 M08/M11 A3016 RMK AO2 SLP224 T10781106
Pressure 30.19 in
Visibility 10.0 miles
Clouds Overcast 6000 ft
Windchill 19 °F
Dew Point 16 °F
Humidity 87%
Rainfall 0.00 in
Snow Depth Not available.
6:53 AM 5:24 PM
Waxing Crescent, 9% visible
METAR KMTO 110453Z AUTO 32006KT 10SM OVC060 M08/M11 A3016 RMK AO2 SLP224 T10781106

10-Day Weather Forecast

Almanac

Astronomy

Feb. 10, 2016 Rise Set
Actual Time
Civil Twilight
Nautical Twilight
Astronomical Twilight
Moon
Length of Visible Light
Length of Day
Tomorrow will be .
, % of the Moon is Illuminated

Today's Extremes

State Highs State Lows

Community

WunderPhotos

Upload Photos

1,892,016 photos uploaded!

WunderBlog® & News

Nearby

Air Quality

  Air Quality AQ Index Pollutant
Not available.

Snow Depth

Station Depth Elevation

Earthquake Activity

City Distance Mag. Time & Date
Minimum magnitude displayed is 2.5.

Coastal Water Temperatures

Place Temperature

Stations

Nearby Weather Stations

Station Location Temp. Windchill Dew Point Humidity Wind Precip. Elev Updated Type
                   

Watches & Warnings

There are currently no watches in effect.